createdAt,value
2023-03-15T00:01:52.334Z,0.50
2023-03-15T00:04:19.397Z,0.60
2023-03-15T00:06:46.039Z,0.60
2023-03-15T00:09:13.241Z,0.50
2023-03-15T00:11:39.950Z,0.60
2023-03-15T00:14:06.612Z,0.60
2023-03-15T00:16:33.282Z,0.60
2023-03-15T00:19:00.365Z,0.60
2023-03-15T00:21:29.725Z,0.60
2023-03-15T00:23:57.044Z,0.60
2023-03-15T00:26:23.763Z,0.60
2023-03-15T00:28:50.397Z,0.60
2023-03-15T00:31:23.713Z,0.50
2023-03-15T00:33:53.937Z,0.50
2023-03-15T00:36:24.504Z,0.40
2023-03-15T00:38:53.559Z,0.30
2023-03-15T00:41:22.147Z,0.30
2023-03-15T00:43:49.164Z,0.20
2023-03-15T00:46:17.580Z,0.20
2023-03-15T00:48:48.715Z,0.20
2023-03-15T00:51:18.165Z,0.20
2023-03-15T00:53:46.386Z,0.10
2023-03-15T00:56:19.449Z,0.10
2023-03-15T00:58:46.614Z,0.10
2023-03-15T01:01:19.427Z,0.00
2023-03-15T01:03:46.710Z,0.10
2023-03-15T01:06:16.323Z,0.10
2023-03-15T01:08:43.921Z,0.00
2023-03-15T01:11:14.199Z,0.00
2023-03-15T01:13:41.270Z,0.10
2023-03-15T01:16:10.617Z,0.10
2023-03-15T01:18:38.119Z,0.00
2023-03-15T01:21:09.438Z,0.00
2023-03-15T01:23:36.379Z,0.00
2023-03-15T01:26:04.968Z,0.00
2023-03-15T01:28:31.747Z,0.00
2023-03-15T01:30:59.984Z,0.00
2023-03-15T01:33:27.157Z,0.00
2023-03-15T01:36:06.628Z,-0.10
2023-03-15T01:38:34.581Z,-0.10
2023-03-15T01:41:01.602Z,-0.10
2023-03-15T01:43:31.858Z,-0.10
2023-03-15T01:46:27.422Z,-0.10
2023-03-15T01:49:06.726Z,-0.10
2023-03-15T01:51:47.557Z,-0.10
2023-03-15T01:54:33.953Z,-0.10
2023-03-15T01:57:07.429Z,-0.20
2023-03-15T01:59:39.086Z,-0.20
2023-03-15T02:02:06.488Z,-0.20
2023-03-15T02:04:46.487Z,-0.30
2023-03-15T02:07:16.699Z,-0.30
2023-03-15T02:10:08.058Z,-0.30
2023-03-15T02:12:42.439Z,-0.30
2023-03-15T02:15:09.904Z,-0.30
2023-03-15T02:17:42.204Z,-0.30
2023-03-15T02:20:27.762Z,-0.30
2023-03-15T02:22:59.734Z,-0.30
2023-03-15T02:25:54.181Z,-0.30
2023-03-15T02:28:21.132Z,-0.30
2023-03-15T02:30:49.145Z,-0.30
2023-03-15T02:34:00.555Z,-0.40
2023-03-15T02:36:29.128Z,-0.40
2023-03-15T02:38:56.844Z,-0.40
2023-03-15T02:41:39.180Z,-0.40
2023-03-15T02:44:08.139Z,-0.30
2023-03-15T02:46:36.575Z,-0.30
2023-03-15T02:49:04.815Z,-0.40
2023-03-15T02:51:33.381Z,-0.40
2023-03-15T02:54:00.385Z,-0.40
2023-03-15T02:56:28.154Z,-0.40
2023-03-15T02:58:54.821Z,-0.40
2023-03-15T03:01:21.587Z,-0.40
2023-03-15T03:03:48.591Z,-0.40
2023-03-15T03:06:18.476Z,-0.50
2023-03-15T03:08:47.252Z,-0.40
2023-03-15T03:11:15.538Z,-0.40
2023-03-15T03:13:43.187Z,-0.50
2023-03-15T03:16:10.459Z,-0.50
2023-03-15T03:18:37.227Z,-0.50
2023-03-15T03:21:06.410Z,-0.60
2023-03-15T03:23:34.606Z,-0.50
2023-03-15T03:26:02.124Z,-0.60
2023-03-15T03:28:31.673Z,-0.50
2023-03-15T03:30:59.179Z,-0.60
2023-03-15T03:33:26.001Z,-0.60
2023-03-15T03:35:54.044Z,-0.60
2023-03-15T03:38:20.836Z,-0.60
2023-03-15T03:40:47.537Z,-0.60
2023-03-15T03:43:14.255Z,-0.60
2023-03-15T03:45:40.961Z,-0.70
2023-03-15T03:48:07.691Z,-0.60
2023-03-15T03:50:34.481Z,-0.70
2023-03-15T03:53:01.098Z,-0.70
2023-03-15T03:55:27.783Z,-0.70
2023-03-15T03:57:54.479Z,-0.70
2023-03-15T04:00:21.577Z,-0.70
2023-03-15T04:02:48.411Z,-0.70
2023-03-15T04:05:15.276Z,-0.70
2023-03-15T04:07:41.957Z,-0.70
2023-03-15T04:10:09.524Z,-0.70
2023-03-15T04:12:36.271Z,-0.70
2023-03-15T04:15:03.414Z,-0.70
2023-03-15T04:17:30.464Z,-0.70
2023-03-15T04:19:57.196Z,-0.70
2023-03-15T04:22:23.958Z,-0.70
2023-03-15T04:24:50.723Z,-0.70
2023-03-15T04:27:17.343Z,-0.80
2023-03-15T04:29:44.259Z,-0.80
2023-03-15T04:32:11.524Z,-0.80
2023-03-15T04:34:38.941Z,-0.80
2023-03-15T04:37:06.660Z,-0.80
2023-03-15T04:39:33.434Z,-0.80
2023-03-15T04:42:00.241Z,-0.80
2023-03-15T04:44:27.271Z,-0.80
2023-03-15T04:46:54.872Z,-0.80
2023-03-15T04:49:21.980Z,-0.80
2023-03-15T04:51:48.683Z,-0.80
2023-03-15T04:54:15.329Z,-0.90
2023-03-15T04:56:42.223Z,-0.90
2023-03-15T04:59:10.647Z,-0.90
2023-03-15T05:01:37.643Z,-0.90
2023-03-15T05:04:04.413Z,-0.90
2023-03-15T05:06:31.232Z,-0.90
2023-03-15T05:08:57.946Z,-0.90
2023-03-15T05:11:24.806Z,-0.90
2023-03-15T05:13:51.488Z,-0.90
2023-03-15T05:16:18.260Z,-0.90
2023-03-15T05:18:45.437Z,-0.90
2023-03-15T05:21:13.081Z,-1.00
2023-03-15T05:23:39.927Z,-1.00
2023-03-15T05:26:06.655Z,-1.00
2023-03-15T05:28:33.354Z,-1.00
2023-03-15T05:31:02.366Z,-1.00
2023-03-15T05:33:29.221Z,-0.90
2023-03-15T05:35:56.501Z,-0.90
2023-03-15T05:38:26.678Z,-0.90
2023-03-15T05:40:54.533Z,-0.90
2023-03-15T05:43:22.057Z,-0.90
2023-03-15T05:45:49.111Z,-0.90
2023-03-15T05:48:16.706Z,-0.80
2023-03-15T05:50:43.426Z,-0.90
2023-03-15T05:53:10.493Z,-0.90
2023-03-15T05:55:37.465Z,-0.80
2023-03-15T05:58:04.628Z,-0.80
2023-03-15T06:00:32.190Z,-0.80
2023-03-15T06:02:59.255Z,-0.80
2023-03-15T06:05:26.415Z,-0.80
2023-03-15T06:07:53.176Z,-0.70
2023-03-15T06:10:19.897Z,-0.70
2023-03-15T06:12:46.767Z,-0.60
2023-03-15T06:15:13.495Z,-0.60
2023-03-15T06:17:40.436Z,-0.60
2023-03-15T06:20:07.438Z,-0.60
2023-03-15T06:22:34.126Z,-0.50
2023-03-15T06:25:00.836Z,-0.50
2023-03-15T06:27:27.558Z,-0.40
2023-03-15T06:29:54.249Z,-0.40
2023-03-15T06:32:20.953Z,-0.40
2023-03-15T06:34:47.587Z,-0.40
2023-03-15T06:37:22.789Z,-0.30
2023-03-15T06:39:56.042Z,-0.30
2023-03-15T06:42:22.994Z,-0.20
2023-03-15T06:44:51.216Z,-0.10
2023-03-15T06:47:17.995Z,-0.10
2023-03-15T06:49:45.034Z,0.00
2023-03-15T06:52:11.868Z,0.00
2023-03-15T06:54:38.613Z,0.10
2023-03-15T06:57:05.456Z,0.20
2023-03-15T06:59:32.145Z,0.30
2023-03-15T07:01:58.862Z,0.40
2023-03-15T07:04:25.900Z,0.40
2023-03-15T07:06:52.667Z,0.50
2023-03-15T07:09:19.382Z,0.60
2023-03-15T07:11:46.082Z,0.60
2023-03-15T07:14:12.911Z,0.70
2023-03-15T07:16:39.671Z,0.80
2023-03-15T07:19:06.352Z,0.80
2023-03-15T07:21:33.142Z,0.80
2023-03-15T07:23:59.868Z,0.90
2023-03-15T07:26:26.502Z,1.00
2023-03-15T07:28:53.110Z,1.10
2023-03-15T07:31:19.814Z,1.20
2023-03-15T07:33:46.573Z,1.20
2023-03-15T07:36:13.259Z,1.30
2023-03-15T07:38:43.046Z,1.40
2023-03-15T07:41:10.285Z,1.40
2023-03-15T07:43:36.945Z,1.50
2023-03-15T07:46:03.702Z,1.50
2023-03-15T07:48:31.141Z,1.60
2023-03-15T07:50:57.886Z,1.70
2023-03-15T07:53:24.853Z,1.80
2023-03-15T07:55:51.901Z,1.90
2023-03-15T07:58:20.407Z,2.00
2023-03-15T08:00:47.352Z,2.00
2023-03-15T08:03:14.232Z,2.20
2023-03-15T08:05:41.142Z,2.30
2023-03-15T08:08:07.873Z,2.40
2023-03-15T08:10:34.527Z,2.50
2023-03-15T08:13:01.162Z,2.60
2023-03-15T08:15:27.797Z,2.70
2023-03-15T08:17:54.450Z,2.90
2023-03-15T08:20:21.428Z,3.00
2023-03-15T08:22:49.644Z,3.20
2023-03-15T08:25:19.873Z,3.40
2023-03-15T08:27:47.069Z,3.40
2023-03-15T08:30:15.269Z,3.40
2023-03-15T08:32:43.555Z,3.60
2023-03-15T08:35:15.140Z,3.60
2023-03-15T08:37:42.482Z,3.70
2023-03-15T08:40:11.174Z,3.40
2023-03-15T08:42:38.524Z,3.20
2023-03-15T08:45:07.077Z,3.00
2023-03-15T08:47:38.016Z,3.00
2023-03-15T08:50:07.625Z,2.80
2023-03-15T08:52:34.325Z,2.80
2023-03-15T08:55:01.198Z,2.90
2023-03-15T08:57:28.882Z,3.00
2023-03-15T08:59:56.099Z,3.10
2023-03-15T09:02:23.490Z,3.10
2023-03-15T09:04:52.459Z,3.20
2023-03-15T09:07:21.753Z,3.50
2023-03-15T09:09:48.803Z,3.70
2023-03-15T09:12:16.767Z,3.90
2023-03-15T09:14:44.044Z,4.00
2023-03-15T09:17:11.049Z,4.10
2023-03-15T09:19:38.068Z,4.10
2023-03-15T09:22:16.712Z,4.40
2023-03-15T09:24:51.835Z,4.40
2023-03-15T09:27:19.087Z,4.30
2023-03-15T09:29:45.863Z,4.20
2023-03-15T09:32:13.341Z,4.50
2023-03-15T09:34:42.234Z,4.50
2023-03-15T09:37:09.843Z,4.70
2023-03-15T09:39:36.577Z,4.80
2023-03-15T09:42:07.676Z,5.00
2023-03-15T09:44:45.280Z,5.10
2023-03-15T09:47:23.843Z,4.90
2023-03-15T09:50:06.546Z,4.90
2023-03-15T09:52:43.911Z,4.80
2023-03-15T09:55:16.725Z,5.00
2023-03-15T09:57:49.147Z,4.70
2023-03-15T10:00:21.918Z,4.60
2023-03-15T10:03:07.068Z,4.70
2023-03-15T10:05:48.866Z,5.00
2023-03-15T10:08:18.037Z,5.00
2023-03-15T10:11:08.729Z,5.00
2023-03-15T10:13:53.291Z,5.10
2023-03-15T10:16:20.056Z,5.20
2023-03-15T10:19:07.908Z,4.90
2023-03-15T10:22:02.885Z,5.00
2023-03-15T10:24:46.337Z,4.80
2023-03-15T10:27:25.702Z,4.80
2023-03-15T10:29:55.156Z,5.00
2023-03-15T10:32:30.184Z,5.00
2023-03-15T10:34:58.782Z,5.10
2023-03-15T10:37:25.948Z,5.20
2023-03-15T10:39:58.168Z,5.60
2023-03-15T10:42:31.177Z,6.20
2023-03-15T10:45:11.358Z,6.30
2023-03-15T10:47:50.439Z,6.20
2023-03-15T10:50:33.353Z,6.10
2023-03-15T10:53:08.801Z,5.80
2023-03-15T10:55:45.354Z,5.90
2023-03-15T10:58:27.584Z,5.70
2023-03-15T11:01:03.881Z,5.40
2023-03-15T11:03:31.269Z,5.50
2023-03-15T11:05:59.765Z,5.40
2023-03-15T11:08:40.949Z,5.20
2023-03-15T11:11:09.116Z,5.10
2023-03-15T11:13:38.163Z,5.10
2023-03-15T11:16:12.699Z,5.10
2023-03-15T11:18:59.756Z,5.10
2023-03-15T11:21:33.458Z,4.90
2023-03-15T11:24:05.982Z,5.00
2023-03-15T11:26:39.329Z,4.70
2023-03-15T11:29:33.585Z,4.70
2023-03-15T11:32:02.353Z,4.70
2023-03-15T11:34:40.711Z,4.60
2023-03-15T11:37:27.614Z,4.90
2023-03-15T11:40:11.237Z,5.10
2023-03-15T11:43:05.285Z,5.20
2023-03-15T11:45:53.744Z,5.30
2023-03-15T11:48:42.826Z,5.30
2023-03-15T11:51:12.762Z,5.20
2023-03-15T11:53:51.220Z,5.00
2023-03-15T11:56:23.086Z,4.90
2023-03-15T11:59:07.155Z,5.00
2023-03-15T12:01:34.965Z,4.80
2023-03-15T12:04:32.501Z,4.60
2023-03-15T12:07:24.439Z,4.60
2023-03-15T12:09:57.192Z,4.60
2023-03-15T12:12:26.976Z,4.50
2023-03-15T12:15:14.904Z,4.40
2023-03-15T12:17:51.236Z,4.40
2023-03-15T12:20:40.805Z,4.10
2023-03-15T12:23:16.867Z,4.10
2023-03-15T12:25:55.375Z,4.00
2023-03-15T12:28:28.678Z,4.00
2023-03-15T12:30:59.295Z,3.90
2023-03-15T12:33:28.392Z,4.10
2023-03-15T12:36:14.799Z,4.10
2023-03-15T12:38:58.431Z,4.20
2023-03-15T12:41:39.447Z,4.40
2023-03-15T12:44:33.385Z,4.50
2023-03-15T12:47:02.042Z,4.50
2023-03-15T12:49:31.193Z,4.80
2023-03-15T12:52:04.129Z,4.90
2023-03-15T12:55:03.714Z,4.70
2023-03-15T12:57:37.024Z,4.30
2023-03-15T13:00:11.656Z,3.80
2023-03-15T13:02:53.089Z,3.70
2023-03-15T13:05:22.981Z,3.30
2023-03-15T13:08:08.374Z,3.00
2023-03-15T13:11:00.847Z,3.00
2023-03-15T13:13:27.490Z,3.00
2023-03-15T13:16:09.012Z,2.70
2023-03-15T13:19:05.358Z,2.60
2023-03-15T13:21:36.044Z,2.60
2023-03-15T13:24:06.060Z,2.50
2023-03-15T13:26:51.233Z,2.60
2023-03-15T13:29:29.490Z,2.60
2023-03-15T13:32:16.063Z,2.80
2023-03-15T13:34:45.675Z,2.90
2023-03-15T13:37:17.195Z,2.90
2023-03-15T13:40:02.239Z,3.30
2023-03-15T13:42:29.272Z,3.50
2023-03-15T13:45:22.449Z,3.80
2023-03-15T13:47:49.323Z,4.00
2023-03-15T13:50:20.566Z,4.30
2023-03-15T13:52:48.600Z,4.60
2023-03-15T13:55:25.257Z,5.00
2023-03-15T13:57:58.059Z,5.40
2023-03-15T14:00:26.499Z,5.50
2023-03-15T14:02:55.604Z,5.70
2023-03-15T14:05:28.926Z,6.00
2023-03-15T14:08:06.044Z,6.30
2023-03-15T14:10:39.702Z,6.50
2023-03-15T14:13:25.722Z,6.40
2023-03-15T14:16:31.109Z,6.20
2023-03-15T14:19:14.730Z,5.90
2023-03-15T14:21:44.518Z,5.70
2023-03-15T14:24:32.210Z,5.70
2023-03-15T14:27:01.369Z,5.40
2023-03-15T14:29:32.212Z,5.00
2023-03-15T14:32:21.463Z,4.70
2023-03-15T14:34:49.338Z,4.50
2023-03-15T14:37:36.382Z,4.30
2023-03-15T14:40:22.775Z,4.30
2023-03-15T14:42:50.808Z,4.10
2023-03-15T14:45:18.605Z,3.90
2023-03-15T14:47:56.829Z,3.70
2023-03-15T14:50:26.731Z,3.60
2023-03-15T14:52:54.253Z,3.20
2023-03-15T14:55:23.693Z,2.80
2023-03-15T14:57:51.342Z,2.70
2023-03-15T15:00:20.532Z,2.70
2023-03-15T15:02:54.211Z,2.70
2023-03-15T15:05:24.050Z,2.50
2023-03-15T15:07:55.113Z,2.60
2023-03-15T15:10:24.419Z,2.50
2023-03-15T15:13:04.857Z,2.30
2023-03-15T15:15:40.789Z,2.40
2023-03-15T15:18:18.425Z,2.40
2023-03-15T15:20:46.252Z,2.40
2023-03-15T15:23:21.344Z,2.40
2023-03-15T15:25:50.140Z,2.50
2023-03-15T15:28:33.310Z,2.40
2023-03-15T15:31:01.079Z,2.50
2023-03-15T15:33:27.780Z,2.60
2023-03-15T15:35:57.278Z,2.60
2023-03-15T15:38:32.097Z,2.70
2023-03-15T15:40:58.824Z,2.70
2023-03-15T15:43:25.599Z,2.80
2023-03-15T15:45:52.327Z,3.00
2023-03-15T15:48:19.016Z,3.10
2023-03-15T15:50:45.804Z,3.00
2023-03-15T15:53:17.276Z,3.10
2023-03-15T15:55:46.795Z,3.20
2023-03-15T15:58:14.345Z,3.20
2023-03-15T16:00:41.224Z,3.30
2023-03-15T16:03:17.067Z,3.20
2023-03-15T16:05:44.035Z,3.10
2023-03-15T16:08:20.716Z,3.30
2023-03-15T16:10:47.671Z,3.30
2023-03-15T16:13:14.467Z,3.30
2023-03-15T16:15:41.340Z,3.30
2023-03-15T16:18:12.820Z,3.20
2023-03-15T16:20:41.404Z,3.30
2023-03-15T16:23:17.108Z,3.40
2023-03-15T16:25:47.006Z,3.30
2023-03-15T16:28:13.665Z,3.40
2023-03-15T16:30:41.009Z,3.50
2023-03-15T16:33:16.613Z,3.60
2023-03-15T16:35:44.235Z,3.60
2023-03-15T16:38:24.483Z,3.60
2023-03-15T16:40:53.054Z,3.40
2023-03-15T16:43:19.933Z,3.30
2023-03-15T16:45:46.919Z,3.20
2023-03-15T16:48:14.359Z,3.10
2023-03-15T16:50:42.344Z,3.10
2023-03-15T16:53:12.019Z,2.90
2023-03-15T16:55:39.551Z,2.90
2023-03-15T16:58:19.724Z,2.80
2023-03-15T17:00:48.145Z,2.80
2023-03-15T17:03:16.540Z,2.90
2023-03-15T17:05:45.751Z,2.80
2023-03-15T17:08:17.267Z,3.00
2023-03-15T17:10:44.308Z,3.00
2023-03-15T17:13:14.686Z,3.00
2023-03-15T17:15:41.507Z,3.00
2023-03-15T17:18:16.760Z,2.90
2023-03-15T17:20:43.531Z,2.90
2023-03-15T17:23:10.669Z,2.80
2023-03-15T17:25:37.474Z,2.70
2023-03-15T17:28:05.452Z,2.60
2023-03-15T17:30:34.734Z,2.50
2023-03-15T17:33:02.479Z,2.50
2023-03-15T17:35:33.693Z,2.50
2023-03-15T17:38:03.276Z,2.50
2023-03-15T17:40:32.360Z,2.40
2023-03-15T17:43:01.271Z,2.30
2023-03-15T17:45:33.605Z,2.30
2023-03-15T17:48:00.758Z,2.30
2023-03-15T17:50:30.513Z,2.20
2023-03-15T17:53:18.844Z,2.20
2023-03-15T17:55:47.831Z,2.10
2023-03-15T17:58:26.335Z,2.10
2023-03-15T18:00:56.788Z,2.00
2023-03-15T18:03:24.824Z,2.00
2023-03-15T18:05:51.922Z,2.00
2023-03-15T18:08:21.297Z,1.90
2023-03-15T18:10:49.563Z,1.80
2023-03-15T18:13:18.640Z,1.80
2023-03-15T18:15:51.635Z,1.80
2023-03-15T18:18:19.075Z,1.70
2023-03-15T18:20:46.660Z,1.70
2023-03-15T18:23:15.182Z,1.60
2023-03-15T18:25:42.574Z,1.60
2023-03-15T18:28:09.539Z,1.60
2023-03-15T18:30:37.215Z,1.50
2023-03-15T18:33:05.681Z,1.50
2023-03-15T18:35:34.556Z,1.50
2023-03-15T18:38:01.606Z,1.50
2023-03-15T18:40:30.605Z,1.50
2023-03-15T18:42:57.920Z,1.50
2023-03-15T18:45:35.755Z,1.40
2023-03-15T18:48:02.617Z,1.30
2023-03-15T18:50:29.954Z,1.30
2023-03-15T18:52:57.059Z,1.30
2023-03-15T18:55:23.924Z,1.30
2023-03-15T18:57:52.604Z,1.20
2023-03-15T19:00:29.248Z,1.20
2023-03-15T19:02:59.042Z,1.20
2023-03-15T19:05:27.370Z,1.20
2023-03-15T19:07:54.195Z,1.20
2023-03-15T19:10:22.321Z,1.30
2023-03-15T19:12:49.650Z,1.30
2023-03-15T19:15:19.632Z,1.30
2023-03-15T19:17:48.939Z,1.40
2023-03-15T19:20:18.808Z,1.40
2023-03-15T19:22:45.443Z,1.40
2023-03-15T19:25:13.823Z,1.40
2023-03-15T19:27:44.206Z,1.40
2023-03-15T19:30:16.920Z,1.40
2023-03-15T19:32:45.692Z,1.40
2023-03-15T19:35:12.784Z,1.40
2023-03-15T19:37:39.523Z,1.30
2023-03-15T19:40:09.187Z,1.30
2023-03-15T19:42:35.934Z,1.30
2023-03-15T19:45:03.095Z,1.30
2023-03-15T19:47:29.801Z,1.20
2023-03-15T19:49:56.452Z,1.20
2023-03-15T19:52:23.322Z,1.10
2023-03-15T19:54:51.600Z,1.10
2023-03-15T19:57:18.522Z,1.10
2023-03-15T19:59:45.186Z,1.00
2023-03-15T20:02:13.162Z,1.00
2023-03-15T20:04:40.324Z,1.00
2023-03-15T20:07:10.108Z,0.90
2023-03-15T20:09:38.953Z,0.90
2023-03-15T20:12:07.120Z,0.90
2023-03-15T20:14:34.015Z,0.90
2023-03-15T20:17:00.849Z,0.80
2023-03-15T20:19:27.656Z,0.80
2023-03-15T20:21:54.282Z,0.80
2023-03-15T20:24:20.929Z,0.80
2023-03-15T20:26:47.625Z,0.80
2023-03-15T20:29:14.311Z,0.80
2023-03-15T20:31:41.102Z,0.80
2023-03-15T20:34:09.260Z,0.80
2023-03-15T20:36:36.201Z,0.70
2023-03-15T20:39:05.333Z,0.80
2023-03-15T20:41:33.314Z,0.70
2023-03-15T20:44:00.443Z,0.70
2023-03-15T20:46:27.328Z,0.70
2023-03-15T20:48:54.052Z,0.70
2023-03-15T20:51:21.031Z,0.60
2023-03-15T20:53:48.073Z,0.60
2023-03-15T20:56:15.121Z,0.70
2023-03-15T20:58:41.911Z,0.60
2023-03-15T21:01:11.180Z,0.60
2023-03-15T21:03:37.969Z,0.50
2023-03-15T21:06:05.988Z,0.50
2023-03-15T21:08:34.466Z,0.50
2023-03-15T21:11:02.960Z,0.40
2023-03-15T21:13:29.740Z,0.40
2023-03-15T21:15:56.653Z,0.40
2023-03-15T21:18:24.525Z,0.40
2023-03-15T21:20:59.555Z,0.40
2023-03-15T21:23:31.477Z,0.40
2023-03-15T21:26:03.424Z,0.40
2023-03-15T21:28:31.285Z,0.40
2023-03-15T21:30:58.492Z,0.40
2023-03-15T21:33:27.360Z,0.40
2023-03-15T21:35:54.140Z,0.30
2023-03-15T21:38:21.166Z,0.30
2023-03-15T21:40:52.393Z,0.40
2023-03-15T21:43:19.142Z,0.30
2023-03-15T21:45:45.985Z,0.30
2023-03-15T21:48:12.778Z,0.30
2023-03-15T21:50:39.456Z,0.30
2023-03-15T21:53:06.075Z,0.30
2023-03-15T21:55:33.691Z,0.30
2023-03-15T21:58:02.131Z,0.30
2023-03-15T22:00:30.115Z,0.30
2023-03-15T22:02:57.059Z,0.30
2023-03-15T22:05:24.528Z,0.30
2023-03-15T22:07:51.213Z,0.20
2023-03-15T22:10:19.712Z,0.20
2023-03-15T22:12:46.493Z,0.20
2023-03-15T22:15:15.200Z,0.20
2023-03-15T22:17:41.979Z,0.20
2023-03-15T22:20:16.759Z,0.20
2023-03-15T22:22:45.295Z,0.30
2023-03-15T22:25:12.689Z,0.30
2023-03-15T22:27:40.025Z,0.30
2023-03-15T22:30:08.471Z,0.30
2023-03-15T22:32:35.408Z,0.30
2023-03-15T22:35:02.117Z,0.30
2023-03-15T22:37:28.818Z,0.30
2023-03-15T22:39:55.477Z,0.30
2023-03-15T22:42:22.144Z,0.30
2023-03-15T22:44:48.930Z,0.30
2023-03-15T22:47:15.631Z,0.30
2023-03-15T22:49:42.373Z,0.30
2023-03-15T22:52:09.148Z,0.30
2023-03-15T22:54:35.842Z,0.30
2023-03-15T22:57:02.518Z,0.30
2023-03-15T22:59:29.420Z,0.30
2023-03-15T23:01:56.860Z,0.30
2023-03-15T23:04:24.017Z,0.20
2023-03-15T23:06:51.878Z,0.30
2023-03-15T23:09:18.728Z,0.20
2023-03-15T23:11:45.442Z,0.20
2023-03-15T23:14:12.137Z,0.30
2023-03-15T23:16:38.827Z,0.30
2023-03-15T23:19:05.538Z,0.30
2023-03-15T23:21:32.255Z,0.30
2023-03-15T23:23:58.976Z,0.30
2023-03-15T23:26:25.643Z,0.30
2023-03-15T23:28:53.951Z,0.30
2023-03-15T23:31:21.171Z,0.30
2023-03-15T23:33:47.906Z,0.30
2023-03-15T23:36:14.847Z,0.30
2023-03-15T23:38:41.659Z,0.30
2023-03-15T23:41:08.518Z,0.30
2023-03-15T23:43:35.430Z,0.30
2023-03-15T23:46:04.771Z,0.20
2023-03-15T23:48:34.504Z,0.20
2023-03-15T23:51:04.845Z,0.30
2023-03-15T23:53:32.356Z,0.20
2023-03-15T23:55:59.037Z,0.20
2023-03-15T23:58:25.797Z,0.30
